createdAt,value
2023-04-11T00:00:29.778Z,1.50
2023-04-11T00:01:02.260Z,1.60
2023-04-11T00:01:34.782Z,2.40
2023-04-11T00:02:07.289Z,2.00
2023-04-11T00:02:39.768Z,1.70
2023-04-11T00:03:12.303Z,1.60
2023-04-11T00:03:44.836Z,1.70
2023-04-11T00:04:17.262Z,1.70
2023-04-11T00:04:49.724Z,1.70
2023-04-11T00:05:22.145Z,2.10
2023-04-11T00:05:54.659Z,2.00
2023-04-11T00:06:27.156Z,1.70
2023-04-11T00:06:59.664Z,2.20
2023-04-11T00:07:32.148Z,2.00
2023-04-11T00:08:04.637Z,1.60
2023-04-11T00:08:37.100Z,2.00
2023-04-11T00:09:09.602Z,2.10
2023-04-11T00:09:42.130Z,1.80
2023-04-11T00:10:14.624Z,1.80
2023-04-11T00:10:47.115Z,1.70
2023-04-11T00:11:19.593Z,1.70
2023-04-11T00:11:52.066Z,1.60
2023-04-11T00:12:24.527Z,1.70
2023-04-11T00:12:57.059Z,2.10
2023-04-11T00:13:29.545Z,2.00
2023-04-11T00:14:02.059Z,1.80
2023-04-11T00:14:34.535Z,1.80
2023-04-11T00:15:07.003Z,1.70
2023-04-11T00:15:39.495Z,1.60
2023-04-11T00:16:11.944Z,1.80
2023-04-11T00:16:44.465Z,1.90
2023-04-11T00:17:16.933Z,1.60
2023-04-11T00:17:49.447Z,1.70
2023-04-11T00:18:21.878Z,1.80
2023-04-11T00:18:54.644Z,1.90
2023-04-11T00:19:26.874Z,1.90
2023-04-11T00:19:59.330Z,1.60
2023-04-11T00:20:31.820Z,1.70
2023-04-11T00:21:04.293Z,1.70
2023-04-11T00:21:36.801Z,1.50
2023-04-11T00:22:09.270Z,1.90
2023-04-11T00:22:41.718Z,1.90
2023-04-11T00:23:14.184Z,1.70
2023-04-11T00:23:46.671Z,1.60
2023-04-11T00:24:19.145Z,1.70
2023-04-11T00:24:51.609Z,1.80
2023-04-11T00:25:24.106Z,1.80
2023-04-11T00:25:56.638Z,1.70
2023-04-11T00:26:29.098Z,1.60
2023-04-11T00:27:01.584Z,1.60
2023-04-11T00:27:34.088Z,2.20
2023-04-11T00:28:06.577Z,2.10
2023-04-11T00:28:39.035Z,2.20
2023-04-11T00:29:11.499Z,2.10
2023-04-11T00:29:43.987Z,1.50
2023-04-11T00:30:16.433Z,1.50
2023-04-11T00:30:48.905Z,2.10
2023-04-11T00:31:21.515Z,2.70
2023-04-11T00:31:53.914Z,2.60
2023-04-11T00:32:26.435Z,2.20
2023-04-11T00:32:58.923Z,2.30
2023-04-11T00:33:31.354Z,1.80
2023-04-11T00:34:03.803Z,2.00
2023-04-11T00:34:36.309Z,2.00
2023-04-11T00:35:08.834Z,2.20
2023-04-11T00:35:41.229Z,1.90
2023-04-11T00:36:13.797Z,1.70
2023-04-11T00:36:46.306Z,1.80
2023-04-11T00:37:18.729Z,1.80
2023-04-11T00:37:51.215Z,2.00
2023-04-11T00:38:23.699Z,1.90
2023-04-11T00:38:56.358Z,1.80
2023-04-11T00:39:28.685Z,1.90
2023-04-11T00:40:01.206Z,2.30
2023-04-11T00:40:33.602Z,2.30
2023-04-11T00:41:06.082Z,2.30
2023-04-11T00:41:38.563Z,2.30
2023-04-11T00:42:11.016Z,2.20
2023-04-11T00:42:43.585Z,2.10
2023-04-11T00:43:16.063Z,2.10
2023-04-11T00:43:48.517Z,2.30
2023-04-11T00:44:20.991Z,2.70
2023-04-11T00:44:53.459Z,2.40
2023-04-11T00:45:25.918Z,2.20
2023-04-11T00:45:58.439Z,2.10
2023-04-11T00:46:30.869Z,1.60
2023-04-11T00:47:03.360Z,2.20
2023-04-11T00:47:35.878Z,2.50
2023-04-11T00:48:08.405Z,2.20
2023-04-11T00:48:40.809Z,2.20
2023-04-11T00:49:13.295Z,2.30
2023-04-11T00:49:45.774Z,2.00
2023-04-11T00:50:18.302Z,2.20
2023-04-11T00:50:50.831Z,2.20
2023-04-11T00:51:23.289Z,2.20
2023-04-11T00:51:55.765Z,2.20
2023-04-11T00:52:28.281Z,2.20
2023-04-11T00:53:00.787Z,2.30
2023-04-11T00:53:33.292Z,2.20
2023-04-11T00:54:05.748Z,3.00
2023-04-11T00:54:38.225Z,3.10
2023-04-11T00:55:10.692Z,2.20
2023-04-11T00:55:43.176Z,2.20
2023-04-11T00:56:15.662Z,2.30
2023-04-11T00:56:48.162Z,2.40
2023-04-11T00:57:20.609Z,2.90
2023-04-11T00:57:53.128Z,3.30
2023-04-11T00:58:25.585Z,2.60
2023-04-11T00:58:58.058Z,2.20
2023-04-11T00:59:30.545Z,2.40
2023-04-11T01:00:03.087Z,2.00
2023-04-11T01:00:35.537Z,2.10
2023-04-11T01:01:08.019Z,1.90
2023-04-11T01:01:40.530Z,2.00
2023-04-11T01:02:13.021Z,2.00
2023-04-11T01:02:45.591Z,2.30
2023-04-11T01:03:18.124Z,2.50
2023-04-11T01:03:50.499Z,2.70
2023-04-11T01:04:22.845Z,2.50
2023-04-11T01:04:55.317Z,2.50
2023-04-11T01:05:27.784Z,2.30
2023-04-11T01:06:00.258Z,2.50
2023-04-11T01:06:32.751Z,2.50
2023-04-11T01:07:05.208Z,2.70
2023-04-11T01:07:37.730Z,2.50
2023-04-11T01:08:10.192Z,2.50
2023-04-11T01:08:42.685Z,2.70
2023-04-11T01:09:15.166Z,2.60
2023-04-11T01:09:47.696Z,2.50
2023-04-11T01:10:20.169Z,2.80
2023-04-11T01:10:52.650Z,2.60
2023-04-11T01:11:25.131Z,2.40
2023-04-11T01:11:57.674Z,2.70
2023-04-11T01:12:30.206Z,2.60
2023-04-11T01:13:02.708Z,3.00
2023-04-11T01:13:35.160Z,3.30
2023-04-11T01:14:07.715Z,3.00
2023-04-11T01:14:40.152Z,3.50
2023-04-11T01:15:12.629Z,3.80
2023-04-11T01:15:45.142Z,3.30
2023-04-11T01:16:17.731Z,3.10
2023-04-11T01:16:50.159Z,2.80
2023-04-11T01:17:22.687Z,2.50
2023-04-11T01:17:55.092Z,3.00
2023-04-11T01:18:27.547Z,3.00
2023-04-11T01:19:00.052Z,2.90
2023-04-11T01:19:32.525Z,3.70
2023-04-11T01:20:05.017Z,3.60
2023-04-11T01:20:37.473Z,2.80
2023-04-11T01:21:09.979Z,2.90
2023-04-11T01:21:42.459Z,2.90
2023-04-11T01:22:14.961Z,2.90
2023-04-11T01:22:47.463Z,2.80
2023-04-11T01:23:19.908Z,3.30
2023-04-11T01:23:52.394Z,3.70
2023-04-11T01:24:24.888Z,2.70
2023-04-11T01:24:57.399Z,2.70
2023-04-11T01:25:29.864Z,3.10
2023-04-11T01:26:02.381Z,3.20
2023-04-11T01:26:34.855Z,3.20
2023-04-11T01:27:07.365Z,2.90
2023-04-11T01:27:39.872Z,2.70
2023-04-11T01:28:12.292Z,2.90
2023-04-11T01:28:44.766Z,3.20
2023-04-11T01:29:17.304Z,3.00
2023-04-11T01:29:49.801Z,2.80
2023-04-11T01:30:22.293Z,3.20
2023-04-11T01:30:54.829Z,3.40
2023-04-11T01:31:27.258Z,3.20
2023-04-11T01:31:59.760Z,2.90
2023-04-11T01:32:32.283Z,3.00
2023-04-11T01:33:04.772Z,4.00
2023-04-11T01:33:37.178Z,3.60
2023-04-11T01:34:09.693Z,3.00
2023-04-11T01:34:42.197Z,3.60
2023-04-11T01:35:14.656Z,3.70
2023-04-11T01:35:47.177Z,3.40
2023-04-11T01:36:19.642Z,3.10
2023-04-11T01:36:52.142Z,3.20
2023-04-11T01:37:24.585Z,3.20
2023-04-11T01:37:57.069Z,3.10
2023-04-11T01:38:29.539Z,3.00
2023-04-11T01:39:02.038Z,3.20
2023-04-11T01:39:34.509Z,3.30
2023-04-11T01:40:07.001Z,3.00
2023-04-11T01:40:39.460Z,3.30
2023-04-11T01:41:11.926Z,3.70
2023-04-11T01:41:44.408Z,3.30
2023-04-11T01:42:16.877Z,3.00
2023-04-11T01:42:49.380Z,2.80
2023-04-11T01:43:21.837Z,3.30
2023-04-11T01:43:54.368Z,3.50
2023-04-11T01:44:26.819Z,3.50
2023-04-11T01:44:59.305Z,3.50
2023-04-11T01:45:31.804Z,3.40
2023-04-11T01:46:04.319Z,3.30
2023-04-11T01:46:36.784Z,3.10
2023-04-11T01:47:09.284Z,3.60
2023-04-11T01:47:41.822Z,4.20
2023-04-11T01:48:14.368Z,4.10
2023-04-11T01:48:46.785Z,3.70
2023-04-11T01:49:19.220Z,3.40
2023-04-11T01:49:51.709Z,3.30
2023-04-11T01:50:24.166Z,3.30
2023-04-11T01:50:56.632Z,3.40
2023-04-11T01:51:29.126Z,3.70
2023-04-11T01:52:01.602Z,3.50
2023-04-11T01:52:34.115Z,3.80
2023-04-11T01:53:06.574Z,4.10
2023-04-11T01:53:39.052Z,3.60
2023-04-11T01:54:11.543Z,4.00
2023-04-11T01:54:44.057Z,3.70
2023-04-11T01:55:16.513Z,3.10
2023-04-11T01:55:48.995Z,3.40
2023-04-11T01:56:21.507Z,4.00
2023-04-11T01:56:53.996Z,4.00
2023-04-11T01:57:26.446Z,3.40
2023-04-11T01:57:58.921Z,3.20
2023-04-11T01:58:31.418Z,3.90
2023-04-11T01:59:03.894Z,4.20
2023-04-11T01:59:36.385Z,3.80
2023-04-11T02:00:08.888Z,3.80
2023-04-11T02:00:41.349Z,3.50
2023-04-11T02:01:13.837Z,4.00
2023-04-11T02:01:46.371Z,3.90
2023-04-11T02:02:18.912Z,3.80
2023-04-11T02:02:51.393Z,4.30
2023-04-11T02:03:23.884Z,3.50
2023-04-11T02:03:56.305Z,3.40
2023-04-11T02:04:28.807Z,4.20
2023-04-11T02:05:01.229Z,4.20
2023-04-11T02:05:33.737Z,3.70
2023-04-11T02:06:06.199Z,3.60
2023-04-11T02:06:38.677Z,4.00
2023-04-11T02:07:11.137Z,3.70
2023-04-11T02:07:43.674Z,3.90
2023-04-11T02:08:16.156Z,4.80
2023-04-11T02:08:48.622Z,4.40
2023-04-11T02:09:21.086Z,4.30
2023-04-11T02:09:53.579Z,3.90
2023-04-11T02:10:26.086Z,3.40
2023-04-11T02:10:58.598Z,3.90
2023-04-11T02:11:31.103Z,3.60
2023-04-11T02:12:03.590Z,3.40
2023-04-11T02:12:36.071Z,3.50
2023-04-11T02:13:08.566Z,4.50
2023-04-11T02:13:41.052Z,4.70
2023-04-11T02:14:13.579Z,3.80
2023-04-11T02:14:46.079Z,4.10
2023-04-11T02:15:18.534Z,4.40
2023-04-11T02:15:51.183Z,4.70
2023-04-11T02:16:23.723Z,4.70
2023-04-11T02:16:56.091Z,5.40
2023-04-11T02:17:28.634Z,3.90
2023-04-11T02:18:01.137Z,3.80
2023-04-11T02:18:33.563Z,4.20
2023-04-11T02:19:06.075Z,3.90
2023-04-11T02:19:38.536Z,3.60
2023-04-11T02:20:11.013Z,3.50
2023-04-11T02:20:43.484Z,3.60
2023-04-11T02:21:15.939Z,3.20
2023-04-11T02:21:48.446Z,3.40
2023-04-11T02:22:20.947Z,3.10
2023-04-11T02:22:53.436Z,3.30
2023-04-11T02:23:25.906Z,3.20
2023-04-11T02:23:59.673Z,3.10
2023-04-11T02:24:30.883Z,2.80
2023-04-11T02:25:03.378Z,2.30
2023-04-11T02:25:35.890Z,2.30
2023-04-11T02:26:08.363Z,2.80
2023-04-11T02:26:40.834Z,3.00
2023-04-11T02:27:13.324Z,3.00
2023-04-11T02:27:45.784Z,2.60
2023-04-11T02:28:18.300Z,3.20
2023-04-11T02:28:50.784Z,3.80
2023-04-11T02:29:23.266Z,3.70
2023-04-11T02:29:55.756Z,3.10
2023-04-11T02:30:28.317Z,2.80
2023-04-11T02:31:00.868Z,3.40
2023-04-11T02:31:33.421Z,3.50
2023-04-11T02:32:05.875Z,3.20
2023-04-11T02:32:38.372Z,3.50
2023-04-11T02:33:10.857Z,3.80
2023-04-11T02:33:43.322Z,4.30
2023-04-11T02:34:15.812Z,3.60
2023-04-11T02:34:48.299Z,3.00
2023-04-11T02:35:20.777Z,3.30
2023-04-11T02:35:53.301Z,3.40
2023-04-11T02:36:25.744Z,3.80
2023-04-11T02:36:58.220Z,4.30
2023-04-11T02:37:30.702Z,4.20
2023-04-11T02:38:03.229Z,4.10
2023-04-11T02:38:35.705Z,4.10
2023-04-11T02:39:08.174Z,4.00
2023-04-11T02:39:40.692Z,4.60
2023-04-11T02:40:13.232Z,4.60
2023-04-11T02:40:45.725Z,4.10
2023-04-11T02:41:18.206Z,4.50
2023-04-11T02:41:50.721Z,3.80
2023-04-11T02:42:23.242Z,3.90
2023-04-11T02:42:55.724Z,4.30
2023-04-11T02:43:28.253Z,4.20
2023-04-11T02:44:00.731Z,4.40
2023-04-11T02:44:33.280Z,4.30
2023-04-11T02:45:05.787Z,4.30
2023-04-11T02:45:38.248Z,4.30
2023-04-11T02:46:13.375Z,4.50
2023-04-11T02:46:43.264Z,5.20
2023-04-11T02:47:15.744Z,5.00
2023-04-11T02:47:48.194Z,5.00
2023-04-11T02:48:20.652Z,4.80
2023-04-11T02:48:53.283Z,4.50
2023-04-11T02:49:25.695Z,4.60
2023-04-11T02:49:58.190Z,4.80
2023-04-11T02:50:30.693Z,5.50
2023-04-11T02:51:03.177Z,5.80
2023-04-11T02:51:35.673Z,5.30
2023-04-11T02:52:08.192Z,4.60
2023-04-11T02:52:40.669Z,4.60
2023-04-11T02:53:13.190Z,5.00
2023-04-11T02:53:45.647Z,5.20
2023-04-11T02:54:18.122Z,5.50
2023-04-11T02:54:50.636Z,5.20
2023-04-11T02:55:23.250Z,5.50
2023-04-11T02:55:55.727Z,5.70
2023-04-11T02:56:28.219Z,5.40
2023-04-11T02:57:00.694Z,5.00
2023-04-11T02:57:33.175Z,5.00
2023-04-11T02:58:05.646Z,5.70
2023-04-11T02:58:38.170Z,6.00
2023-04-11T02:59:10.649Z,5.50
2023-04-11T02:59:43.160Z,5.10
2023-04-11T03:00:15.620Z,4.70
2023-04-11T03:00:48.124Z,4.70
2023-04-11T03:01:20.649Z,4.90
2023-04-11T03:01:53.256Z,5.70
2023-04-11T03:02:25.815Z,5.70
2023-04-11T03:02:58.157Z,5.60
2023-04-11T03:03:30.690Z,5.20
2023-04-11T03:04:03.182Z,4.70
2023-04-11T03:04:35.752Z,5.40
2023-04-11T03:05:08.123Z,5.40
2023-04-11T03:05:40.593Z,5.40
2023-04-11T03:06:13.053Z,6.00
2023-04-11T03:06:45.523Z,6.20
2023-04-11T03:07:17.994Z,6.30
2023-04-11T03:07:50.474Z,5.70
2023-04-11T03:08:22.947Z,5.40
2023-04-11T03:08:55.553Z,5.50
2023-04-11T03:09:27.921Z,5.50
2023-04-11T03:10:00.314Z,5.50
2023-04-11T03:10:32.795Z,6.60
2023-04-11T03:11:05.245Z,6.60
2023-04-11T03:11:37.771Z,5.90
2023-04-11T03:12:10.260Z,6.40
2023-04-11T03:12:42.718Z,7.10
2023-04-11T03:13:15.175Z,5.80
2023-04-11T03:13:47.662Z,5.30
2023-04-11T03:14:20.120Z,5.50
2023-04-11T03:14:52.601Z,5.60
2023-04-11T03:15:25.087Z,5.80
2023-04-11T03:15:57.648Z,5.80
2023-04-11T03:16:30.165Z,6.40
2023-04-11T03:17:02.559Z,6.50
2023-04-11T03:17:35.097Z,5.50
2023-04-11T03:18:07.579Z,5.20
2023-04-11T03:18:40.072Z,5.70
2023-04-11T03:19:12.575Z,6.20
2023-04-11T03:19:45.077Z,5.60
2023-04-11T03:20:17.598Z,4.90
2023-04-11T03:20:50.074Z,5.70
2023-04-11T03:21:22.583Z,6.10
2023-04-11T03:21:55.042Z,5.60
2023-04-11T03:22:27.529Z,5.90
2023-04-11T03:23:00.012Z,6.60
2023-04-11T03:23:32.493Z,6.60
2023-04-11T03:24:04.960Z,6.40
2023-04-11T03:24:37.451Z,6.30
2023-04-11T03:25:09.954Z,6.50
2023-04-11T03:25:42.457Z,5.90
2023-04-11T03:26:14.918Z,5.90
2023-04-11T03:26:47.418Z,6.50
2023-04-11T03:27:19.913Z,5.50
2023-04-11T03:27:52.385Z,4.70
2023-04-11T03:28:24.911Z,5.20
2023-04-11T03:28:57.625Z,6.50
2023-04-11T03:29:29.888Z,6.60
2023-04-11T03:30:02.388Z,6.00
2023-04-11T03:30:34.841Z,5.70
2023-04-11T03:31:07.375Z,6.20
2023-04-11T03:31:39.867Z,6.10
2023-04-11T03:32:12.354Z,6.10
2023-04-11T03:32:44.895Z,6.30
2023-04-11T03:33:17.338Z,6.40
2023-04-11T03:33:49.855Z,6.30
2023-04-11T03:34:22.298Z,6.30
2023-04-11T03:34:54.789Z,6.30
2023-04-11T03:35:27.283Z,6.20
2023-04-11T03:35:59.759Z,5.80
2023-04-11T03:36:32.227Z,6.20
2023-04-11T03:37:04.713Z,5.50
2023-04-11T03:37:37.174Z,5.40
2023-04-11T03:38:09.662Z,5.80
2023-04-11T03:38:42.201Z,5.90
2023-04-11T03:39:14.685Z,5.60
2023-04-11T03:39:47.167Z,5.50
2023-04-11T03:40:19.662Z,6.20
2023-04-11T03:40:52.157Z,6.30
2023-04-11T03:41:24.650Z,6.80
2023-04-11T03:41:57.155Z,5.90
2023-04-11T03:42:29.631Z,5.90
2023-04-11T03:43:03.817Z,6.70
2023-04-11T03:43:34.560Z,7.30
2023-04-11T03:44:07.054Z,7.20
2023-04-11T03:44:39.528Z,6.20
2023-04-11T03:45:12.037Z,6.40
2023-04-11T03:45:44.493Z,6.30
2023-04-11T03:46:17.003Z,6.90
2023-04-11T03:46:49.489Z,7.00
2023-04-11T03:47:21.968Z,6.20
2023-04-11T03:47:54.478Z,6.60
2023-04-11T03:48:26.943Z,5.60
2023-04-11T03:48:59.430Z,5.10
2023-04-11T03:49:31.930Z,5.60
2023-04-11T03:50:04.417Z,6.10
2023-04-11T03:50:36.912Z,6.60
2023-04-11T03:51:09.417Z,7.90
2023-04-11T03:51:41.936Z,7.10
2023-04-11T03:52:14.438Z,7.00
2023-04-11T03:52:46.917Z,6.00
2023-04-11T03:53:19.460Z,5.60
2023-04-11T03:53:51.928Z,7.00
2023-04-11T03:54:24.405Z,7.90
2023-04-11T03:54:56.903Z,7.20
2023-04-11T03:55:29.372Z,6.40
2023-04-11T03:56:01.908Z,7.40
2023-04-11T03:56:34.370Z,6.90
2023-04-11T03:57:06.906Z,6.50
2023-04-11T03:57:39.377Z,6.00
2023-04-11T03:58:11.880Z,6.90
2023-04-11T03:58:44.325Z,6.10
2023-04-11T03:59:16.851Z,6.10
2023-04-11T03:59:49.323Z,6.50
2023-04-11T04:00:21.822Z,6.70
2023-04-11T04:00:54.307Z,6.90
2023-04-11T04:01:26.766Z,5.40
2023-04-11T04:01:59.328Z,5.70
2023-04-11T04:02:31.926Z,6.10
2023-04-11T04:03:04.476Z,5.90
2023-04-11T04:03:37.058Z,5.70
2023-04-11T04:04:09.417Z,6.20
2023-04-11T04:04:41.914Z,6.70
2023-04-11T04:05:14.322Z,5.80
2023-04-11T04:05:46.783Z,5.90
2023-04-11T04:06:19.218Z,6.40
2023-04-11T04:06:51.785Z,6.40
2023-04-11T04:07:24.283Z,6.60
2023-04-11T04:07:56.811Z,7.80
2023-04-11T04:08:29.340Z,7.70
2023-04-11T04:09:01.940Z,6.50
2023-04-11T04:09:34.458Z,5.90
2023-04-11T04:10:06.978Z,5.70
2023-04-11T04:10:39.601Z,5.90
2023-04-11T04:11:12.125Z,6.70
2023-04-11T04:11:44.587Z,7.10
2023-04-11T04:12:17.075Z,6.10
2023-04-11T04:12:49.554Z,5.30
2023-04-11T04:13:22.055Z,5.40
2023-04-11T04:13:54.787Z,6.00
2023-04-11T04:14:27.006Z,5.70
2023-04-11T04:14:59.500Z,5.40
2023-04-11T04:15:32.020Z,6.60
2023-04-11T04:16:04.538Z,7.40
2023-04-11T04:16:36.999Z,7.60
2023-04-11T04:17:16.517Z,6.70
2023-04-11T04:17:49.054Z,5.60
2023-04-11T04:18:21.487Z,6.30
2023-04-11T04:18:53.957Z,6.20
2023-04-11T04:19:26.444Z,5.80
2023-04-11T04:19:58.954Z,5.80
2023-04-11T04:20:31.486Z,5.60
2023-04-11T04:21:03.978Z,5.80
2023-04-11T04:21:36.456Z,6.20
2023-04-11T04:22:08.914Z,5.00
2023-04-11T04:22:41.392Z,5.70
2023-04-11T04:23:13.875Z,5.90
2023-04-11T04:23:46.386Z,5.60
2023-04-11T04:24:18.865Z,5.50
2023-04-11T04:24:51.352Z,6.30
2023-04-11T04:25:25.523Z,6.80
2023-04-11T04:25:56.327Z,6.00
2023-04-11T04:26:28.788Z,5.50
2023-04-11T04:27:01.293Z,5.50
2023-04-11T04:27:33.745Z,5.80
2023-04-11T04:28:06.250Z,5.30
2023-04-11T04:28:38.717Z,5.90
2023-04-11T04:29:11.227Z,6.30
2023-04-11T04:29:43.703Z,5.20
2023-04-11T04:30:16.210Z,4.90
2023-04-11T04:30:48.700Z,5.10
2023-04-11T04:31:21.235Z,5.00
2023-04-11T04:31:53.776Z,4.70
2023-04-11T04:32:26.277Z,5.00
2023-04-11T04:32:58.824Z,5.10
2023-04-11T04:33:31.236Z,5.80
2023-04-11T04:34:03.732Z,5.60
2023-04-11T04:34:36.201Z,4.90
2023-04-11T04:35:08.680Z,4.60
2023-04-11T04:35:41.160Z,4.90
2023-04-11T04:36:13.647Z,4.80
2023-04-11T04:36:46.139Z,5.60
2023-04-11T04:37:18.619Z,5.60
2023-04-11T04:37:51.094Z,5.70
2023-04-11T04:38:23.569Z,5.00
2023-04-11T04:38:56.075Z,5.00
2023-04-11T04:39:28.567Z,5.80
2023-04-11T04:40:01.048Z,5.70
2023-04-11T04:40:33.523Z,5.30
2023-04-11T04:41:06.051Z,5.40
2023-04-11T04:41:38.538Z,5.50
2023-04-11T04:42:11.077Z,5.30
2023-04-11T04:42:43.562Z,5.30
2023-04-11T04:43:16.050Z,5.00
2023-04-11T04:43:48.547Z,5.00
2023-04-11T04:44:21.024Z,5.30
2023-04-11T04:44:53.538Z,5.10
2023-04-11T04:45:26.001Z,5.50
2023-04-11T04:45:58.617Z,5.90
2023-04-11T04:46:30.973Z,5.50
2023-04-11T04:47:03.456Z,4.70
2023-04-11T04:47:35.942Z,4.50
2023-04-11T04:48:08.518Z,4.80
2023-04-11T04:48:40.922Z,6.30
2023-04-11T04:49:13.408Z,6.00
2023-04-11T04:49:45.929Z,4.20
2023-04-11T04:50:18.377Z,4.40
2023-04-11T04:50:50.885Z,5.50
2023-04-11T04:51:23.387Z,4.10
2023-04-11T04:51:55.899Z,3.80
2023-04-11T04:52:28.378Z,3.60
2023-04-11T04:53:00.828Z,3.40
2023-04-11T04:53:33.304Z,3.50
2023-04-11T04:54:05.787Z,3.80
2023-04-11T04:54:38.353Z,4.00
2023-04-11T04:55:10.869Z,3.70
2023-04-11T04:55:43.397Z,3.50
2023-04-11T04:56:15.855Z,3.00
2023-04-11T04:56:48.403Z,3.20
2023-04-11T04:57:20.827Z,3.70
2023-04-11T04:57:53.319Z,3.60
2023-04-11T04:58:25.793Z,3.40
2023-04-11T04:58:58.312Z,4.10
2023-04-11T04:59:30.772Z,4.30
2023-04-11T05:00:03.286Z,4.00
2023-04-11T05:00:35.762Z,4.10
2023-04-11T05:01:08.308Z,3.40
2023-04-11T05:01:40.832Z,3.40
2023-04-11T05:02:13.321Z,3.40
2023-04-11T05:02:45.823Z,3.80
2023-04-11T05:03:18.296Z,3.40
2023-04-11T05:03:50.764Z,2.80
2023-04-11T05:04:23.316Z,3.10
2023-04-11T05:04:55.595Z,3.10
2023-04-11T05:05:28.068Z,3.00
2023-04-11T05:06:00.562Z,2.90
2023-04-11T05:06:33.065Z,3.00
2023-04-11T05:07:05.569Z,3.10
2023-04-11T05:07:38.018Z,3.30
2023-04-11T05:08:10.512Z,2.80
2023-04-11T05:08:43.006Z,2.90
2023-04-11T05:09:15.506Z,3.20
2023-04-11T05:09:48.034Z,2.90
2023-04-11T05:10:20.541Z,2.70
2023-04-11T05:10:53.033Z,3.20
2023-04-11T05:11:25.516Z,3.20
2023-04-11T05:11:58.012Z,2.50
2023-04-11T05:12:30.535Z,2.70
2023-04-11T05:13:03.029Z,2.70
2023-04-11T05:13:35.506Z,2.20
2023-04-11T05:14:08.011Z,2.00
2023-04-11T05:14:40.493Z,2.00
2023-04-11T05:15:13.003Z,2.20
2023-04-11T05:15:45.509Z,2.10
2023-04-11T05:16:18.075Z,1.70
2023-04-11T05:16:50.495Z,2.20
2023-04-11T05:17:24.705Z,2.30
2023-04-11T05:17:55.527Z,2.50
2023-04-11T05:18:27.920Z,2.50
2023-04-11T05:19:00.430Z,1.90
2023-04-11T05:19:32.880Z,2.00
2023-04-11T05:20:05.378Z,2.00
2023-04-11T05:20:37.912Z,2.20
2023-04-11T05:21:10.410Z,1.90
2023-04-11T05:21:42.890Z,2.40
2023-04-11T05:22:15.386Z,2.70
2023-04-11T05:22:48.226Z,2.30
2023-04-11T05:23:20.435Z,2.00
2023-04-11T05:23:52.943Z,1.90
2023-04-11T05:24:25.437Z,2.00
2023-04-11T05:24:57.942Z,1.90
2023-04-11T05:25:30.404Z,2.50
2023-04-11T05:26:02.878Z,2.40
2023-04-11T05:26:35.339Z,2.20
2023-04-11T05:27:07.853Z,2.30
2023-04-11T05:27:40.364Z,2.60
2023-04-11T05:28:12.850Z,2.50
2023-04-11T05:28:45.338Z,2.40
2023-04-11T05:29:17.898Z,2.00
2023-04-11T05:29:50.438Z,2.90
2023-04-11T05:30:22.956Z,2.80
2023-04-11T05:30:55.442Z,2.40
2023-04-11T05:31:27.908Z,2.40
2023-04-11T05:32:00.385Z,2.10
2023-04-11T05:32:32.928Z,2.80
2023-04-11T05:33:05.395Z,3.00
2023-04-11T05:33:37.857Z,2.40
2023-04-11T05:34:10.347Z,1.90
2023-04-11T05:34:42.825Z,2.20
2023-04-11T05:35:15.357Z,2.10
2023-04-11T05:35:47.891Z,2.20
2023-04-11T05:36:20.291Z,2.20
2023-04-11T05:36:52.774Z,2.00
2023-04-11T05:37:25.253Z,2.30
2023-04-11T05:37:57.774Z,2.60
2023-04-11T05:38:30.258Z,2.40
2023-04-11T05:39:02.752Z,2.40
2023-04-11T05:39:35.258Z,2.80
2023-04-11T05:40:07.776Z,2.50
2023-04-11T05:40:40.269Z,3.00
2023-04-11T05:41:12.767Z,2.10
2023-04-11T05:41:45.235Z,1.80
2023-04-11T05:42:17.753Z,2.00
2023-04-11T05:42:50.221Z,2.40
2023-04-11T05:43:22.715Z,2.40
2023-04-11T05:43:55.455Z,2.70
2023-04-11T05:44:27.647Z,2.90
2023-04-11T05:45:00.213Z,2.30
2023-04-11T05:45:32.652Z,2.40
2023-04-11T05:46:05.145Z,2.70
2023-04-11T05:46:37.601Z,2.60
2023-04-11T05:47:10.044Z,2.20
2023-04-11T05:47:42.527Z,2.40
2023-04-11T05:48:16.038Z,2.60
2023-04-11T05:48:47.483Z,2.40
2023-04-11T05:49:20.101Z,2.10
2023-04-11T05:49:52.614Z,2.40
2023-04-11T05:50:25.105Z,2.30
2023-04-11T05:50:57.617Z,2.20
2023-04-11T05:51:30.083Z,2.40
2023-04-11T05:52:02.587Z,2.70
2023-04-11T05:52:35.062Z,3.50
2023-04-11T05:53:07.540Z,3.10
2023-04-11T05:53:40.009Z,3.00
2023-04-11T05:54:12.469Z,2.90
2023-04-11T05:54:44.991Z,2.40
2023-04-11T05:55:17.556Z,2.00
2023-04-11T05:55:50.037Z,2.20
2023-04-11T05:56:22.560Z,2.80
2023-04-11T05:56:55.093Z,2.40
2023-04-11T05:57:27.594Z,2.10
2023-04-11T05:58:00.105Z,2.10
2023-04-11T05:58:32.591Z,2.10
2023-04-11T05:59:05.071Z,2.00
2023-04-11T05:59:37.555Z,3.10
2023-04-11T06:00:10.098Z,3.40
2023-04-11T06:00:42.593Z,2.80
2023-04-11T06:01:15.123Z,2.60
2023-04-11T06:01:47.641Z,2.90
2023-04-11T06:02:20.199Z,2.70
2023-04-11T06:02:52.636Z,2.30
2023-04-11T06:03:25.171Z,2.50
2023-04-11T06:03:58.153Z,3.10
2023-04-11T06:04:30.102Z,2.70
2023-04-11T06:05:02.547Z,2.40
2023-04-11T06:05:35.035Z,2.40
2023-04-11T06:06:07.483Z,2.30
2023-04-11T06:06:39.960Z,2.40
2023-04-11T06:07:12.456Z,2.40
2023-04-11T06:07:44.939Z,2.60
2023-04-11T06:08:17.423Z,3.50
2023-04-11T06:08:49.914Z,3.30
2023-04-11T06:09:22.374Z,2.40
2023-04-11T06:09:54.844Z,2.60
2023-04-11T06:10:27.355Z,3.30
2023-04-11T06:10:59.856Z,3.30
2023-04-11T06:11:32.328Z,2.90
2023-04-11T06:12:04.798Z,3.20
2023-04-11T06:12:37.284Z,3.20
2023-04-11T06:13:09.783Z,2.60
2023-04-11T06:13:42.301Z,2.70
2023-04-11T06:14:14.764Z,2.60
2023-04-11T06:14:47.258Z,2.90
2023-04-11T06:15:19.723Z,2.80
2023-04-11T06:15:52.272Z,3.20
2023-04-11T06:16:24.791Z,3.90
2023-04-11T06:16:57.176Z,3.40
2023-04-11T06:17:29.709Z,2.90
2023-04-11T06:18:02.196Z,3.20
2023-04-11T06:18:34.617Z,3.70
2023-04-11T06:19:07.109Z,4.00
2023-04-11T06:19:39.585Z,3.30
2023-04-11T06:20:12.082Z,3.70
2023-04-11T06:20:44.564Z,3.70
2023-04-11T06:21:17.056Z,3.80
2023-04-11T06:21:49.538Z,4.00
2023-04-11T06:22:21.992Z,3.60
2023-04-11T06:22:54.457Z,3.80
2023-04-11T06:23:26.957Z,4.00
2023-04-11T06:23:59.477Z,4.40
2023-04-11T06:24:31.967Z,4.00
2023-04-11T06:25:04.445Z,3.10
2023-04-11T06:25:36.900Z,3.60
2023-04-11T06:26:11.323Z,3.80
2023-04-11T06:26:41.867Z,3.60
2023-04-11T06:27:14.373Z,4.00
2023-04-11T06:27:46.875Z,4.00
2023-04-11T06:28:19.373Z,4.10
2023-04-11T06:28:51.874Z,4.50
2023-04-11T06:29:24.352Z,4.30
2023-04-11T06:29:56.843Z,4.40
2023-04-11T06:30:29.365Z,4.30
2023-04-11T06:31:01.867Z,4.90
2023-04-11T06:31:34.378Z,4.80
2023-04-11T06:32:06.741Z,3.40
2023-04-11T06:32:39.270Z,3.30
2023-04-11T06:33:11.840Z,3.50
2023-04-11T06:33:44.200Z,4.00
2023-04-11T06:34:16.706Z,4.10
2023-04-11T06:34:49.266Z,3.90
2023-04-11T06:35:21.736Z,3.40
2023-04-11T06:35:54.262Z,4.40
2023-04-11T06:36:26.753Z,4.40
2023-04-11T06:36:59.233Z,3.40
2023-04-11T06:37:31.721Z,3.40
2023-04-11T06:38:04.189Z,3.50
2023-04-11T06:38:36.694Z,4.10
2023-04-11T06:39:09.134Z,4.10
2023-04-11T06:39:41.636Z,3.60
2023-04-11T06:40:14.144Z,3.50
2023-04-11T06:40:46.628Z,3.70
2023-04-11T06:41:19.133Z,4.40
2023-04-11T06:41:51.634Z,4.40
2023-04-11T06:42:24.126Z,4.00
2023-04-11T06:42:56.580Z,5.20
2023-04-11T06:43:29.053Z,4.10
2023-04-11T06:44:01.566Z,3.20
2023-04-11T06:44:34.064Z,3.20
2023-04-11T06:45:06.520Z,3.10
2023-04-11T06:45:38.987Z,4.20
2023-04-11T06:46:11.505Z,4.90
2023-04-11T06:46:44.014Z,4.00
2023-04-11T06:47:16.439Z,3.20
2023-04-11T06:47:48.955Z,3.70
2023-04-11T06:48:21.412Z,3.80
2023-04-11T06:48:53.880Z,3.60
2023-04-11T06:49:26.392Z,4.70
2023-04-11T06:49:58.923Z,4.90
2023-04-11T06:50:31.434Z,3.00
2023-04-11T06:51:03.934Z,3.50
2023-04-11T06:51:36.373Z,3.80
2023-04-11T06:52:08.823Z,3.70
2023-04-11T06:52:41.303Z,3.50
2023-04-11T06:53:13.819Z,4.10
2023-04-11T06:53:46.247Z,4.10
2023-04-11T06:54:18.757Z,3.30
2023-04-11T06:54:51.258Z,3.80
2023-04-11T06:55:23.766Z,3.90
2023-04-11T06:55:56.268Z,4.00
2023-04-11T06:56:28.775Z,3.40
2023-04-11T06:57:01.298Z,3.10
2023-04-11T06:57:33.762Z,3.40
2023-04-11T06:58:06.219Z,3.90
2023-04-11T06:58:38.714Z,3.90
2023-04-11T06:59:11.253Z,3.90
2023-04-11T06:59:43.728Z,3.50
2023-04-11T07:00:16.216Z,3.10
2023-04-11T07:00:48.710Z,2.70
2023-04-11T07:01:21.279Z,3.10
2023-04-11T07:01:53.754Z,3.10
2023-04-11T07:02:45.743Z,3.10
2023-04-11T07:03:18.182Z,3.00
2023-04-11T07:03:50.629Z,3.20
2023-04-11T07:04:23.179Z,3.40
2023-04-11T07:04:55.693Z,3.60
2023-04-11T07:05:28.013Z,4.10
2023-04-11T07:06:00.477Z,4.20
2023-04-11T07:06:32.965Z,4.80
2023-04-11T07:07:05.436Z,4.30
2023-04-11T07:07:37.960Z,3.10
2023-04-11T07:08:10.424Z,3.30
2023-04-11T07:08:42.997Z,4.00
2023-04-11T07:09:15.489Z,4.30
2023-04-11T07:09:48.066Z,3.30
2023-04-11T07:10:20.544Z,2.90
2023-04-11T07:10:53.019Z,3.10
2023-04-11T07:11:25.524Z,3.30
2023-04-11T07:11:58.004Z,3.60
2023-04-11T07:12:30.489Z,3.10
2023-04-11T07:13:03.016Z,3.10